sensor_id;sensor_type;location;lat;lon;timestamp;P1;durP1;ratioP1;P2;durP2;ratioP2
18411;SDS011;27097;51.738;19.472;2022-07-23T00:02:25;19.52;;;13.82;;
18411;SDS011;27097;51.738;19.472;2022-07-23T00:04:53;20.38;;;13.85;;
18411;SDS011;27097;51.738;19.472;2022-07-23T00:07:20;18.85;;;13.38;;
18411;SDS011;27097;51.738;19.472;2022-07-23T00:09:47;18.55;;;13.00;;
18411;SDS011;27097;51.738;19.472;2022-07-23T00:12:14;17.92;;;13.13;;
18411;SDS011;27097;51.738;19.472;2022-07-23T00:14:42;17.20;;;12.63;;
18411;SDS011;27097;51.738;19.472;2022-07-23T00:17:09;17.52;;;13.38;;
18411;SDS011;27097;51.738;19.472;2022-07-23T00:19:36;18.27;;;12.93;;
18411;SDS011;27097;51.738;19.472;2022-07-23T00:22:04;18.95;;;13.60;;
18411;SDS011;27097;51.738;19.472;2022-07-23T00:24:31;18.60;;;13.57;;
18411;SDS011;27097;51.738;19.472;2022-07-23T00:26:58;21.58;;;13.57;;
18411;SDS011;27097;51.738;19.472;2022-07-23T00:29:25;16.75;;;13.15;;
18411;SDS011;27097;51.738;19.472;2022-07-23T00:31:53;18.98;;;13.18;;
18411;SDS011;27097;51.738;19.472;2022-07-23T00:34:20;23.80;;;13.50;;
18411;SDS011;27097;51.738;19.472;2022-07-23T00:36:47;19.67;;;13.48;;
18411;SDS011;27097;51.738;19.472;2022-07-23T00:39:15;18.92;;;13.73;;
18411;SDS011;27097;51.738;19.472;2022-07-23T00:41:43;19.83;;;14.05;;
18411;SDS011;27097;51.738;19.472;2022-07-23T00:44:17;17.83;;;14.25;;
18411;SDS011;27097;51.738;19.472;2022-07-23T00:46:45;20.52;;;14.23;;
18411;SDS011;27097;51.738;19.472;2022-07-23T00:49:13;20.35;;;14.13;;
18411;SDS011;27097;51.738;19.472;2022-07-23T00:51:40;18.45;;;14.75;;
18411;SDS011;27097;51.738;19.472;2022-07-23T00:54:07;15.75;;;13.50;;
18411;SDS011;27097;51.738;19.472;2022-07-23T00:56:36;20.98;;;13.75;;
18411;SDS011;27097;51.738;19.472;2022-07-23T00:59:03;22.95;;;15.18;;
18411;SDS011;27097;51.738;19.472;2022-07-23T01:01:32;20.80;;;15.25;;
18411;SDS011;27097;51.738;19.472;2022-07-23T01:04:00;19.15;;;14.07;;
18411;SDS011;27097;51.738;19.472;2022-07-23T01:06:27;24.08;;;14.00;;
18411;SDS011;27097;51.738;19.472;2022-07-23T01:08:54;24.67;;;16.37;;
18411;SDS011;27097;51.738;19.472;2022-07-23T01:11:22;19.13;;;15.50;;
18411;SDS011;27097;51.738;19.472;2022-07-23T01:13:51;20.50;;;16.23;;
18411;SDS011;27097;51.738;19.472;2022-07-23T01:16:19;21.98;;;16.40;;
18411;SDS011;27097;51.738;19.472;2022-07-23T01:18:46;22.60;;;16.05;;
18411;SDS011;27097;51.738;19.472;2022-07-23T01:21:13;18.73;;;15.98;;
18411;SDS011;27097;51.738;19.472;2022-07-23T01:23:42;24.88;;;16.52;;
18411;SDS011;27097;51.738;19.472;2022-07-23T01:26:09;19.25;;;16.33;;
18411;SDS011;27097;51.738;19.472;2022-07-23T01:28:36;21.88;;;16.55;;
18411;SDS011;27097;51.738;19.472;2022-07-23T01:31:03;24.52;;;17.10;;
18411;SDS011;27097;51.738;19.472;2022-07-23T01:33:31;18.60;;;15.85;;
18411;SDS011;27097;51.738;19.472;2022-07-23T01:35:58;20.88;;;16.67;;
18411;SDS011;27097;51.738;19.472;2022-07-23T01:38:25;22.95;;;16.45;;
18411;SDS011;27097;51.738;19.472;2022-07-23T01:40:53;20.25;;;16.25;;
18411;SDS011;27097;51.738;19.472;2022-07-23T01:43:20;19.50;;;15.85;;
18411;SDS011;27097;51.738;19.472;2022-07-23T01:45:47;21.67;;;17.00;;
18411;SDS011;27097;51.738;19.472;2022-07-23T01:48:14;23.13;;;16.33;;
18411;SDS011;27097;51.738;19.472;2022-07-23T01:50:41;21.35;;;15.60;;
18411;SDS011;27097;51.738;19.472;2022-07-23T01:53:08;19.05;;;15.90;;
18411;SDS011;27097;51.738;19.472;2022-07-23T01:55:35;20.95;;;16.05;;
18411;SDS011;27097;51.738;19.472;2022-07-23T01:58:04;21.15;;;16.40;;
18411;SDS011;27097;51.738;19.472;2022-07-23T02:00:31;20.70;;;15.43;;
18411;SDS011;27097;51.738;19.472;2022-07-23T02:02:58;19.23;;;15.82;;
18411;SDS011;27097;51.738;19.472;2022-07-23T02:05:25;21.83;;;16.42;;
18411;SDS011;27097;51.738;19.472;2022-07-23T02:07:53;20.30;;;15.75;;
18411;SDS011;27097;51.738;19.472;2022-07-23T02:10:21;18.77;;;16.33;;
18411;SDS011;27097;51.738;19.472;2022-07-23T02:12:48;18.35;;;16.20;;
18411;SDS011;27097;51.738;19.472;2022-07-23T02:15:17;18.55;;;15.95;;
18411;SDS011;27097;51.738;19.472;2022-07-23T02:17:44;24.23;;;16.02;;
18411;SDS011;27097;51.738;19.472;2022-07-23T02:20:11;22.77;;;15.77;;
18411;SDS011;27097;51.738;19.472;2022-07-23T02:22:39;20.70;;;15.80;;
18411;SDS011;27097;51.738;19.472;2022-07-23T02:25:07;20.73;;;16.33;;
18411;SDS011;27097;51.738;19.472;2022-07-23T02:27:34;17.98;;;16.00;;
18411;SDS011;27097;51.738;19.472;2022-07-23T02:30:03;21.85;;;16.50;;
18411;SDS011;27097;51.738;19.472;2022-07-23T02:32:32;19.55;;;15.45;;
18411;SDS011;27097;51.738;19.472;2022-07-23T02:34:59;20.58;;;16.63;;
18411;SDS011;27097;51.738;19.472;2022-07-23T02:37:26;18.95;;;15.57;;
18411;SDS011;27097;51.738;19.472;2022-07-23T02:39:54;18.52;;;16.25;;
18411;SDS011;27097;51.738;19.472;2022-07-23T02:42:21;20.42;;;15.50;;
18411;SDS011;27097;51.738;19.472;2022-07-23T02:44:49;23.45;;;16.13;;
18411;SDS011;27097;51.738;19.472;2022-07-23T02:47:16;17.58;;;15.63;;
18411;SDS011;27097;51.738;19.472;2022-07-23T02:49:44;17.70;;;15.60;;
18411;SDS011;27097;51.738;19.472;2022-07-23T02:52:11;18.88;;;15.73;;
18411;SDS011;27097;51.738;19.472;2022-07-23T02:54:39;21.40;;;16.38;;
18411;SDS011;27097;51.738;19.472;2022-07-23T02:57:06;17.92;;;16.02;;
18411;SDS011;27097;51.738;19.472;2022-07-23T02:59:33;20.63;;;16.05;;
18411;SDS011;27097;51.738;19.472;2022-07-23T03:02:00;20.23;;;15.95;;
18411;SDS011;27097;51.738;19.472;2022-07-23T03:04:27;20.35;;;15.23;;
18411;SDS011;27097;51.738;19.472;2022-07-23T03:06:55;18.95;;;15.98;;
18411;SDS011;27097;51.738;19.472;2022-07-23T03:09:22;18.77;;;15.90;;
18411;SDS011;27097;51.738;19.472;2022-07-23T03:11:59;19.27;;;15.73;;
18411;SDS011;27097;51.738;19.472;2022-07-23T03:14:26;20.05;;;15.60;;
18411;SDS011;27097;51.738;19.472;2022-07-23T03:16:53;19.35;;;15.95;;
18411;SDS011;27097;51.738;19.472;2022-07-23T03:19:21;18.90;;;16.42;;
18411;SDS011;27097;51.738;19.472;2022-07-23T03:21:48;18.17;;;15.32;;
18411;SDS011;27097;51.738;19.472;2022-07-23T03:24:17;18.02;;;15.80;;
18411;SDS011;27097;51.738;19.472;2022-07-23T03:26:44;19.25;;;16.38;;
18411;SDS011;27097;51.738;19.472;2022-07-23T03:29:11;19.35;;;15.98;;
18411;SDS011;27097;51.738;19.472;2022-07-23T03:31:38;18.38;;;16.23;;
18411;SDS011;27097;51.738;19.472;2022-07-23T03:34:05;20.40;;;15.95;;
18411;SDS011;27097;51.738;19.472;2022-07-23T03:36:32;18.55;;;15.93;;
18411;SDS011;27097;51.738;19.472;2022-07-23T03:38:59;18.27;;;16.15;;
18411;SDS011;27097;51.738;19.472;2022-07-23T03:41:28;20.20;;;15.38;;
18411;SDS011;27097;51.738;19.472;2022-07-23T03:43:55;18.20;;;15.40;;
18411;SDS011;27097;51.738;19.472;2022-07-23T03:46:22;19.60;;;15.35;;
18411;SDS011;27097;51.738;19.472;2022-07-23T03:48:49;18.13;;;15.48;;
18411;SDS011;27097;51.738;19.472;2022-07-23T03:51:16;19.45;;;14.88;;
18411;SDS011;27097;51.738;19.472;2022-07-23T03:53:43;23.15;;;16.02;;
18411;SDS011;27097;51.738;19.472;2022-07-23T03:56:10;17.05;;;15.02;;
18411;SDS011;27097;51.738;19.472;2022-07-23T03:58:38;18.10;;;15.77;;
18411;SDS011;27097;51.738;19.472;2022-07-23T04:01:05;21.23;;;15.35;;
18411;SDS011;27097;51.738;19.472;2022-07-23T04:03:33;22.48;;;16.10;;
18411;SDS011;27097;51.738;19.472;2022-07-23T04:06:00;19.75;;;16.73;;
18411;SDS011;27097;51.738;19.472;2022-07-23T04:08:27;19.52;;;15.50;;
18411;SDS011;27097;51.738;19.472;2022-07-23T04:10:54;18.67;;;14.90;;
18411;SDS011;27097;51.738;19.472;2022-07-23T04:13:22;18.80;;;14.63;;
18411;SDS011;27097;51.738;19.472;2022-07-23T04:15:50;19.60;;;15.30;;
18411;SDS011;27097;51.738;19.472;2022-07-23T04:18:17;19.10;;;15.50;;
18411;SDS011;27097;51.738;19.472;2022-07-23T04:20:50;20.08;;;15.50;;
18411;SDS011;27097;51.738;19.472;2022-07-23T04:23:17;18.50;;;15.95;;
18411;SDS011;27097;51.738;19.472;2022-07-23T04:25:44;19.55;;;14.68;;
18411;SDS011;27097;51.738;19.472;2022-07-23T04:28:11;20.27;;;14.65;;
18411;SDS011;27097;51.738;19.472;2022-07-23T04:30:38;20.60;;;15.27;;
18411;SDS011;27097;51.738;19.472;2022-07-23T04:33:07;18.50;;;15.23;;
18411;SDS011;27097;51.738;19.472;2022-07-23T04:35:34;19.50;;;14.38;;
18411;SDS011;27097;51.738;19.472;2022-07-23T04:38:02;16.23;;;14.18;;
18411;SDS011;27097;51.738;19.472;2022-07-23T04:40:29;18.75;;;14.80;;
18411;SDS011;27097;51.738;19.472;2022-07-23T04:42:56;18.73;;;15.73;;
18411;SDS011;27097;51.738;19.472;2022-07-23T04:45:24;22.42;;;15.07;;
18411;SDS011;27097;51.738;19.472;2022-07-23T04:47:51;24.52;;;15.43;;
18411;SDS011;27097;51.738;19.472;2022-07-23T04:50:19;18.25;;;15.50;;
18411;SDS011;27097;51.738;19.472;2022-07-23T04:52:47;18.55;;;14.73;;
18411;SDS011;27097;51.738;19.472;2022-07-23T04:55:14;17.38;;;14.23;;
18411;SDS011;27097;51.738;19.472;2022-07-23T04:57:41;18.88;;;15.38;;
18411;SDS011;27097;51.738;19.472;2022-07-23T05:00:10;17.17;;;14.65;;
18411;SDS011;27097;51.738;19.472;2022-07-23T05:02:37;18.67;;;14.85;;
18411;SDS011;27097;51.738;19.472;2022-07-23T05:05:05;17.80;;;14.73;;
18411;SDS011;27097;51.738;19.472;2022-07-23T05:07:34;20.58;;;15.38;;
18411;SDS011;27097;51.738;19.472;2022-07-23T05:10:01;19.65;;;14.88;;
18411;SDS011;27097;51.738;19.472;2022-07-23T05:12:28;17.52;;;15.07;;
18411;SDS011;27097;51.738;19.472;2022-07-23T05:14:55;17.65;;;15.50;;
18411;SDS011;27097;51.738;19.472;2022-07-23T05:17:22;17.10;;;15.05;;
18411;SDS011;27097;51.738;19.472;2022-07-23T05:19:49;21.60;;;16.27;;
18411;SDS011;27097;51.738;19.472;2022-07-23T05:22:18;19.77;;;15.25;;
18411;SDS011;27097;51.738;19.472;2022-07-23T05:24:46;19.88;;;15.88;;
18411;SDS011;27097;51.738;19.472;2022-07-23T05:27:13;20.60;;;16.27;;
18411;SDS011;27097;51.738;19.472;2022-07-23T05:29:40;20.27;;;16.52;;
18411;SDS011;27097;51.738;19.472;2022-07-23T05:32:07;21.42;;;17.38;;
18411;SDS011;27097;51.738;19.472;2022-07-23T05:34:34;20.88;;;16.15;;
18411;SDS011;27097;51.738;19.472;2022-07-23T05:37:01;21.13;;;16.40;;
18411;SDS011;27097;51.738;19.472;2022-07-23T05:39:28;21.98;;;17.95;;
18411;SDS011;27097;51.738;19.472;2022-07-23T05:41:57;19.50;;;17.40;;
18411;SDS011;27097;51.738;19.472;2022-07-23T05:44:24;21.38;;;18.73;;
18411;SDS011;27097;51.738;19.472;2022-07-23T05:46:52;21.08;;;18.48;;
18411;SDS011;27097;51.738;19.472;2022-07-23T05:49:19;20.25;;;17.98;;
18411;SDS011;27097;51.738;19.472;2022-07-23T05:51:46;21.00;;;18.23;;
18411;SDS011;27097;51.738;19.472;2022-07-23T05:54:13;20.13;;;17.65;;
18411;SDS011;27097;51.738;19.472;2022-07-23T05:56:40;24.00;;;19.25;;
18411;SDS011;27097;51.738;19.472;2022-07-23T05:59:09;22.73;;;18.80;;
18411;SDS011;27097;51.738;19.472;2022-07-23T06:01:37;21.83;;;18.73;;
18411;SDS011;27097;51.738;19.472;2022-07-23T06:04:04;21.52;;;18.25;;
18411;SDS011;27097;51.738;19.472;2022-07-23T06:06:31;22.17;;;17.80;;
18411;SDS011;27097;51.738;19.472;2022-07-23T06:08:58;22.70;;;18.10;;
18411;SDS011;27097;51.738;19.472;2022-07-23T06:11:25;21.90;;;19.08;;
18411;SDS011;27097;51.738;19.472;2022-07-23T06:13:52;24.88;;;19.90;;
18411;SDS011;27097;51.738;19.472;2022-07-23T06:16:20;30.98;;;19.67;;
18411;SDS011;27097;51.738;19.472;2022-07-23T06:18:47;23.48;;;19.58;;
18411;SDS011;27097;51.738;19.472;2022-07-23T06:21:14;23.13;;;19.48;;
18411;SDS011;27097;51.738;19.472;2022-07-23T06:23:41;23.58;;;18.92;;
18411;SDS011;27097;51.738;19.472;2022-07-23T06:26:08;23.25;;;19.33;;
18411;SDS011;27097;51.738;19.472;2022-07-23T06:28:35;23.13;;;19.55;;
18411;SDS011;27097;51.738;19.472;2022-07-23T06:31:02;27.88;;;20.30;;
18411;SDS011;27097;51.738;19.472;2022-07-23T06:33:31;30.35;;;19.95;;
18411;SDS011;27097;51.738;19.472;2022-07-23T06:35:58;29.23;;;21.40;;
18411;SDS011;27097;51.738;19.472;2022-07-23T06:38:25;27.15;;;20.80;;
18411;SDS011;27097;51.738;19.472;2022-07-23T06:40:52;25.15;;;20.52;;
18411;SDS011;27097;51.738;19.472;2022-07-23T06:43:22;26.30;;;20.80;;
18411;SDS011;27097;51.738;19.472;2022-07-23T06:45:49;24.80;;;20.88;;
18411;SDS011;27097;51.738;19.472;2022-07-23T06:48:16;25.17;;;21.73;;
18411;SDS011;27097;51.738;19.472;2022-07-23T06:50:45;30.77;;;22.17;;
18411;SDS011;27097;51.738;19.472;2022-07-23T06:53:12;26.48;;;21.13;;
18411;SDS011;27097;51.738;19.472;2022-07-23T06:55:39;24.98;;;20.98;;
18411;SDS011;27097;51.738;19.472;2022-07-23T06:58:06;27.25;;;20.23;;
18411;SDS011;27097;51.738;19.472;2022-07-23T07:00:35;22.58;;;19.85;;
18411;SDS011;27097;51.738;19.472;2022-07-23T07:03:02;24.17;;;20.85;;
18411;SDS011;27097;51.738;19.472;2022-07-23T07:05:29;31.67;;;22.30;;
18411;SDS011;27097;51.738;19.472;2022-07-23T07:07:58;26.63;;;21.73;;
18411;SDS011;27097;51.738;19.472;2022-07-23T07:10:25;26.50;;;22.38;;
18411;SDS011;27097;51.738;19.472;2022-07-23T07:12:52;24.92;;;20.95;;
18411;SDS011;27097;51.738;19.472;2022-07-23T07:15:19;29.85;;;22.15;;
18411;SDS011;27097;51.738;19.472;2022-07-23T07:17:46;29.00;;;23.38;;
18411;SDS011;27097;51.738;19.472;2022-07-23T07:20:13;27.23;;;22.77;;
18411;SDS011;27097;51.738;19.472;2022-07-23T07:22:40;30.83;;;23.52;;
18411;SDS011;27097;51.738;19.472;2022-07-23T07:25:09;26.88;;;23.08;;
18411;SDS011;27097;51.738;19.472;2022-07-23T07:27:36;32.63;;;23.55;;
18411;SDS011;27097;51.738;19.472;2022-07-23T07:30:04;31.73;;;22.67;;
18411;SDS011;27097;51.738;19.472;2022-07-23T07:32:32;27.05;;;22.77;;
18411;SDS011;27097;51.738;19.472;2022-07-23T07:34:59;28.88;;;22.08;;
18411;SDS011;27097;51.738;19.472;2022-07-23T07:37:26;29.63;;;21.08;;
18411;SDS011;27097;51.738;19.472;2022-07-23T07:39:53;26.63;;;20.40;;
18411;SDS011;27097;51.738;19.472;2022-07-23T07:42:21;25.02;;;20.00;;
18411;SDS011;27097;51.738;19.472;2022-07-23T07:44:48;22.95;;;19.90;;
18411;SDS011;27097;51.738;19.472;2022-07-23T07:47:15;26.02;;;19.77;;
18411;SDS011;27097;51.738;19.472;2022-07-23T07:49:43;34.78;;;20.98;;
18411;SDS011;27097;51.738;19.472;2022-07-23T07:52:10;30.90;;;20.63;;
18411;SDS011;27097;51.738;19.472;2022-07-23T07:54:37;29.73;;;20.20;;
18411;SDS011;27097;51.738;19.472;2022-07-23T07:57:04;27.77;;;19.50;;
18411;SDS011;27097;51.738;19.472;2022-07-23T07:59:33;26.13;;;19.08;;
18411;SDS011;27097;51.738;19.472;2022-07-23T08:02:00;26.58;;;18.67;;
18411;SDS011;27097;51.738;19.472;2022-07-23T08:04:28;25.05;;;18.70;;
18411;SDS011;27097;51.738;19.472;2022-07-23T08:06:55;26.17;;;18.52;;
18411;SDS011;27097;51.738;19.472;2022-07-23T08:09:22;28.45;;;19.27;;
18411;SDS011;27097;51.738;19.472;2022-07-23T08:11:49;22.88;;;18.30;;
18411;SDS011;27097;51.738;19.472;2022-07-23T08:14:17;31.83;;;19.48;;
18411;SDS011;27097;51.738;19.472;2022-07-23T08:16:45;27.63;;;18.85;;
18411;SDS011;27097;51.738;19.472;2022-07-23T08:19:12;25.52;;;18.60;;
18411;SDS011;27097;51.738;19.472;2022-07-23T08:21:39;23.73;;;18.98;;
18411;SDS011;27097;51.738;19.472;2022-07-23T08:24:06;27.63;;;18.55;;
18411;SDS011;27097;51.738;19.472;2022-07-23T08:26:33;27.52;;;18.17;;
18411;SDS011;27097;51.738;19.472;2022-07-23T08:29:00;26.58;;;18.90;;
18411;SDS011;27097;51.738;19.472;2022-07-23T08:31:27;22.65;;;17.85;;
18411;SDS011;27097;51.738;19.472;2022-07-23T08:33:56;24.15;;;17.15;;
18411;SDS011;27097;51.738;19.472;2022-07-23T08:36:23;21.77;;;17.30;;
18411;SDS011;27097;51.738;19.472;2022-07-23T08:38:52;22.52;;;16.92;;
18411;SDS011;27097;51.738;19.472;2022-07-23T08:41:19;23.13;;;15.60;;
18411;SDS011;27097;51.738;19.472;2022-07-23T08:43:47;20.77;;;16.85;;
18411;SDS011;27097;51.738;19.472;2022-07-23T08:46:14;23.02;;;17.13;;
18411;SDS011;27097;51.738;19.472;2022-07-23T08:48:45;22.40;;;18.05;;
18411;SDS011;27097;51.738;19.472;2022-07-23T08:51:16;23.23;;;18.10;;
18411;SDS011;27097;51.738;19.472;2022-07-23T08:53:44;25.90;;;17.13;;
18411;SDS011;27097;51.738;19.472;2022-07-23T08:56:11;23.80;;;17.52;;
18411;SDS011;27097;51.738;19.472;2022-07-23T08:58:38;23.42;;;16.70;;
18411;SDS011;27097;51.738;19.472;2022-07-23T09:01:05;25.65;;;17.95;;
18411;SDS011;27097;51.738;19.472;2022-07-23T09:03:33;21.63;;;18.02;;
18411;SDS011;27097;51.738;19.472;2022-07-23T09:06:01;24.85;;;17.23;;
18411;SDS011;27097;51.738;19.472;2022-07-23T09:08:35;22.48;;;16.13;;
18411;SDS011;27097;51.738;19.472;2022-07-23T09:11:04;23.63;;;17.67;;
18411;SDS011;27097;51.738;19.472;2022-07-23T09:13:34;19.75;;;16.98;;
18411;SDS011;27097;51.738;19.472;2022-07-23T09:16:05;21.15;;;17.30;;
18411;SDS011;27097;51.738;19.472;2022-07-23T09:18:35;24.17;;;16.50;;
18411;SDS011;27097;51.738;19.472;2022-07-23T09:21:09;24.98;;;16.95;;
18411;SDS011;27097;51.738;19.472;2022-07-23T09:23:40;19.98;;;16.45;;
18411;SDS011;27097;51.738;19.472;2022-07-23T09:26:22;23.77;;;17.60;;
18411;SDS011;27097;51.738;19.472;2022-07-23T09:28:57;21.60;;;17.15;;
18411;SDS011;27097;51.738;19.472;2022-07-23T09:31:41;19.83;;;15.73;;
18411;SDS011;27097;51.738;19.472;2022-07-23T09:34:11;21.52;;;16.50;;
18411;SDS011;27097;51.738;19.472;2022-07-23T09:36:40;22.00;;;15.50;;
18411;SDS011;27097;51.738;19.472;2022-07-23T09:39:09;21.30;;;16.20;;
18411;SDS011;27097;51.738;19.472;2022-07-23T09:41:38;19.05;;;16.25;;
18411;SDS011;27097;51.738;19.472;2022-07-23T09:44:10;19.27;;;15.98;;
18411;SDS011;27097;51.738;19.472;2022-07-23T09:46:39;21.83;;;15.63;;
18411;SDS011;27097;51.738;19.472;2022-07-23T09:49:13;19.75;;;15.82;;
18411;SDS011;27097;51.738;19.472;2022-07-23T09:51:49;22.30;;;15.85;;
18411;SDS011;27097;51.738;19.472;2022-07-23T09:54:30;21.58;;;15.88;;
18411;SDS011;27097;51.738;19.472;2022-07-23T09:57:00;19.83;;;16.02;;
18411;SDS011;27097;51.738;19.472;2022-07-23T09:59:31;20.02;;;16.25;;
18411;SDS011;27097;51.738;19.472;2022-07-23T10:01:59;20.05;;;16.20;;
18411;SDS011;27097;51.738;19.472;2022-07-23T10:04:27;20.60;;;16.08;;
18411;SDS011;27097;51.738;19.472;2022-07-23T10:06:56;19.80;;;15.65;;
18411;SDS011;27097;51.738;19.472;2022-07-23T10:09:25;23.02;;;15.85;;
18411;SDS011;27097;51.738;19.472;2022-07-23T10:11:57;20.35;;;15.98;;
18411;SDS011;27097;51.738;19.472;2022-07-23T10:14:30;20.52;;;15.57;;
18411;SDS011;27097;51.738;19.472;2022-07-23T10:16:58;22.15;;;15.45;;
18411;SDS011;27097;51.738;19.472;2022-07-23T10:19:26;22.17;;;16.10;;
18411;SDS011;27097;51.738;19.472;2022-07-23T10:21:55;23.98;;;15.25;;
18411;SDS011;27097;51.738;19.472;2022-07-23T10:24:28;18.42;;;15.55;;
18411;SDS011;27097;51.738;19.472;2022-07-23T10:27:14;18.20;;;15.30;;
18411;SDS011;27097;51.738;19.472;2022-07-23T10:30:05;18.98;;;15.70;;
18411;SDS011;27097;51.738;19.472;2022-07-23T10:32:37;21.38;;;16.08;;
18411;SDS011;27097;51.738;19.472;2022-07-23T10:35:13;18.90;;;15.45;;
18411;SDS011;27097;51.738;19.472;2022-07-23T10:37:54;19.77;;;15.63;;
18411;SDS011;27097;51.738;19.472;2022-07-23T10:40:28;25.27;;;15.27;;
18411;SDS011;27097;51.738;19.472;2022-07-23T10:42:59;20.77;;;15.13;;
18411;SDS011;27097;51.738;19.472;2022-07-23T10:45:28;21.65;;;15.75;;
18411;SDS011;27097;51.738;19.472;2022-07-23T10:48:12;18.23;;;15.05;;
18411;SDS011;27097;51.738;19.472;2022-07-23T10:50:43;19.70;;;14.73;;
18411;SDS011;27097;51.738;19.472;2022-07-23T10:53:43;18.85;;;14.50;;
18411;SDS011;27097;51.738;19.472;2022-07-23T11:02:40;18.40;;;14.57;;
18411;SDS011;27097;51.738;19.472;2022-07-23T11:05:09;20.48;;;15.10;;
18411;SDS011;27097;51.738;19.472;2022-07-23T11:10:42;21.27;;;15.07;;
18411;SDS011;27097;51.738;19.472;2022-07-23T11:13:27;21.02;;;15.18;;
18411;SDS011;27097;51.738;19.472;2022-07-23T11:16:22;19.17;;;14.43;;
18411;SDS011;27097;51.738;19.472;2022-07-23T11:21:45;23.75;;;15.70;;
18411;SDS011;27097;51.738;19.472;2022-07-23T11:24:14;17.25;;;13.57;;
18411;SDS011;27097;51.738;19.472;2022-07-23T11:26:44;26.83;;;15.10;;
18411;SDS011;27097;51.738;19.472;2022-07-23T11:32:17;21.05;;;14.18;;
18411;SDS011;27097;51.738;19.472;2022-07-23T11:34:52;20.00;;;13.93;;
18411;SDS011;27097;51.738;19.472;2022-07-23T11:40:12;17.55;;;13.48;;
18411;SDS011;27097;51.738;19.472;2022-07-23T11:42:51;17.77;;;12.93;;
18411;SDS011;27097;51.738;19.472;2022-07-23T11:45:19;18.90;;;13.02;;
18411;SDS011;27097;51.738;19.472;2022-07-23T11:47:46;17.90;;;13.05;;
18411;SDS011;27097;51.738;19.472;2022-07-23T11:50:15;17.30;;;12.95;;
18411;SDS011;27097;51.738;19.472;2022-07-23T11:52:42;15.32;;;12.40;;
18411;SDS011;27097;51.738;19.472;2022-07-23T11:55:09;15.52;;;12.73;;
18411;SDS011;27097;51.738;19.472;2022-07-23T11:57:38;14.45;;;11.77;;
18411;SDS011;27097;51.738;19.472;2022-07-23T12:00:07;19.85;;;13.38;;
18411;SDS011;27097;51.738;19.472;2022-07-23T12:02:36;16.38;;;12.50;;
18411;SDS011;27097;51.738;19.472;2022-07-23T12:05:04;16.50;;;11.98;;
18411;SDS011;27097;51.738;19.472;2022-07-23T12:07:36;14.93;;;11.05;;
18411;SDS011;27097;51.738;19.472;2022-07-23T12:10:13;17.13;;;11.88;;
18411;SDS011;27097;51.738;19.472;2022-07-23T12:12:42;21.10;;;12.10;;
18411;SDS011;27097;51.738;19.472;2022-07-23T12:15:11;13.52;;;11.20;;
18411;SDS011;27097;51.738;19.472;2022-07-23T12:17:42;15.15;;;10.60;;
18411;SDS011;27097;51.738;19.472;2022-07-23T12:20:12;15.07;;;10.90;;
18411;SDS011;27097;51.738;19.472;2022-07-23T12:22:43;17.65;;;11.18;;
18411;SDS011;27097;51.738;19.472;2022-07-23T12:25:12;13.05;;;10.70;;
18411;SDS011;27097;51.738;19.472;2022-07-23T12:27:40;14.82;;;11.10;;
18411;SDS011;27097;51.738;19.472;2022-07-23T12:30:15;14.50;;;10.93;;
18411;SDS011;27097;51.738;19.472;2022-07-23T12:32:43;14.80;;;10.57;;
18411;SDS011;27097;51.738;19.472;2022-07-23T12:35:11;15.35;;;10.15;;
18411;SDS011;27097;51.738;19.472;2022-07-23T12:37:39;13.15;;;11.05;;
18411;SDS011;27097;51.738;19.472;2022-07-23T12:40:26;13.23;;;10.88;;
18411;SDS011;27097;51.738;19.472;2022-07-23T12:42:55;13.13;;;10.95;;
18411;SDS011;27097;51.738;19.472;2022-07-23T12:45:23;15.95;;;10.82;;
18411;SDS011;27097;51.738;19.472;2022-07-23T12:47:55;13.80;;;10.95;;
18411;SDS011;27097;51.738;19.472;2022-07-23T12:50:31;13.77;;;10.40;;
18411;SDS011;27097;51.738;19.472;2022-07-23T12:53:04;14.20;;;10.48;;
18411;SDS011;27097;51.738;19.472;2022-07-23T12:55:34;16.92;;;10.85;;
18411;SDS011;27097;51.738;19.472;2022-07-23T12:58:05;23.30;;;11.77;;
18411;SDS011;27097;51.738;19.472;2022-07-23T13:00:48;59.65;;;10.77;;
18411;SDS011;27097;51.738;19.472;2022-07-23T13:03:23;39.70;;;10.15;;
18411;SDS011;27097;51.738;19.472;2022-07-23T13:05:53;35.28;;;11.18;;
18411;SDS011;27097;51.738;19.472;2022-07-23T13:08:21;43.70;;;11.45;;
18411;SDS011;27097;51.738;19.472;2022-07-23T13:10:50;28.17;;;10.98;;
18411;SDS011;27097;51.738;19.472;2022-07-23T13:13:19;31.00;;;10.68;;
18411;SDS011;27097;51.738;19.472;2022-07-23T13:15:48;22.92;;;10.63;;
18411;SDS011;27097;51.738;19.472;2022-07-23T13:18:15;22.67;;;10.50;;
18411;SDS011;27097;51.738;19.472;2022-07-23T13:20:43;28.48;;;9.82;;
18411;SDS011;27097;51.738;19.472;2022-07-23T13:23:10;24.90;;;9.18;;
18411;SDS011;27097;51.738;19.472;2022-07-23T13:25:37;21.50;;;8.93;;
18411;SDS011;27097;51.738;19.472;2022-07-23T13:28:06;23.10;;;8.80;;
18411;SDS011;27097;51.738;19.472;2022-07-23T13:30:33;19.02;;;8.60;;
18411;SDS011;27097;51.738;19.472;2022-07-23T13:33:01;24.65;;;8.57;;
18411;SDS011;27097;51.738;19.472;2022-07-23T13:35:29;11.60;;;8.20;;
18411;SDS011;27097;51.738;19.472;2022-07-23T13:37:56;16.95;;;7.65;;
18411;SDS011;27097;51.738;19.472;2022-07-23T13:40:23;13.10;;;6.97;;
18411;SDS011;27097;51.738;19.472;2022-07-23T13:42:50;18.95;;;7.80;;
18411;SDS011;27097;51.738;19.472;2022-07-23T13:45:19;17.33;;;7.45;;
18411;SDS011;27097;51.738;19.472;2022-07-23T13:47:46;13.27;;;7.85;;
18411;SDS011;27097;51.738;19.472;2022-07-23T13:50:13;15.65;;;7.45;;
18411;SDS011;27097;51.738;19.472;2022-07-23T13:52:41;13.63;;;7.15;;
18411;SDS011;27097;51.738;19.472;2022-07-23T13:55:09;13.32;;;7.60;;
18411;SDS011;27097;51.738;19.472;2022-07-23T13:57:36;15.00;;;7.10;;
18411;SDS011;27097;51.738;19.472;2022-07-23T14:00:05;11.57;;;6.85;;
18411;SDS011;27097;51.738;19.472;2022-07-23T14:02:36;10.65;;;6.55;;
18411;SDS011;27097;51.738;19.472;2022-07-23T14:05:04;12.68;;;7.03;;
18411;SDS011;27097;51.738;19.472;2022-07-23T14:07:33;15.70;;;7.25;;
18411;SDS011;27097;51.738;19.472;2022-07-23T14:10:02;12.93;;;6.47;;
18411;SDS011;27097;51.738;19.472;2022-07-23T14:12:29;23.45;;;6.88;;
18411;SDS011;27097;51.738;19.472;2022-07-23T14:14:57;12.00;;;6.60;;
18411;SDS011;27097;51.738;19.472;2022-07-23T14:17:24;9.25;;;6.35;;
18411;SDS011;27097;51.738;19.472;2022-07-23T14:19:52;11.40;;;6.57;;
18411;SDS011;27097;51.738;19.472;2022-07-23T14:22:20;11.05;;;5.72;;
18411;SDS011;27097;51.738;19.472;2022-07-23T14:24:47;11.95;;;6.30;;
18411;SDS011;27097;51.738;19.472;2022-07-23T14:27:14;11.82;;;6.20;;
18411;SDS011;27097;51.738;19.472;2022-07-23T14:29:41;8.50;;;5.90;;
18411;SDS011;27097;51.738;19.472;2022-07-23T14:32:09;8.48;;;5.63;;
18411;SDS011;27097;51.738;19.472;2022-07-23T14:34:36;8.00;;;5.60;;
18411;SDS011;27097;51.738;19.472;2022-07-23T14:37:05;8.43;;;5.38;;
18411;SDS011;27097;51.738;19.472;2022-07-23T14:39:32;9.90;;;5.38;;